createdAt,value
2024-05-09T00:00:15.515Z,845.00
2024-05-09T00:01:10.588Z,845.00
2024-05-09T00:02:09.560Z,846.00
2024-05-09T00:03:10.839Z,846.00
2024-05-09T00:04:09.505Z,846.00
2024-05-09T00:05:09.619Z,850.00
2024-05-09T00:06:09.730Z,849.00
2024-05-09T00:07:09.508Z,843.00
2024-05-09T00:08:09.751Z,849.00
2024-05-09T00:09:09.479Z,843.00
2024-05-09T00:10:17.801Z,830.00
2024-05-09T00:11:10.538Z,831.00
2024-05-09T00:12:09.548Z,834.00
2024-05-09T00:13:10.008Z,832.00
2024-05-09T00:14:09.392Z,838.00
2024-05-09T00:15:09.331Z,848.00
2024-05-09T00:16:09.323Z,838.00
2024-05-09T00:17:09.335Z,830.00
2024-05-09T00:18:09.541Z,834.00
2024-05-09T00:19:09.292Z,831.00
2024-05-09T00:20:17.478Z,842.00
2024-05-09T00:21:10.224Z,843.00
2024-05-09T00:22:09.179Z,841.00
2024-05-09T00:23:09.557Z,839.00
2024-05-09T00:24:09.123Z,837.00
2024-05-09T00:25:09.101Z,842.00
2024-05-09T00:26:09.198Z,835.00
2024-05-09T00:27:11.350Z,844.00
2024-05-09T00:28:09.061Z,844.00
2024-05-09T00:29:09.099Z,839.00
2024-05-09T00:30:14.287Z,830.00
2024-05-09T00:31:09.968Z,844.00
2024-05-09T00:32:09.026Z,838.00
2024-05-09T00:33:10.397Z,845.00
2024-05-09T00:34:09.067Z,841.00
2024-05-09T00:35:09.047Z,840.00
2024-05-09T00:36:08.918Z,836.00
2024-05-09T00:37:08.896Z,835.00
2024-05-09T00:38:08.945Z,832.00
2024-05-09T00:39:08.832Z,837.00
2024-05-09T00:40:15.355Z,833.00
2024-05-09T00:41:09.889Z,837.00
2024-05-09T00:42:08.755Z,837.00
2024-05-09T00:43:08.767Z,838.00
2024-05-09T00:44:08.708Z,837.00
2024-05-09T00:45:08.688Z,835.00
2024-05-09T00:46:08.650Z,831.00
2024-05-09T00:47:08.716Z,830.00
2024-05-09T00:48:09.864Z,832.00
2024-05-09T00:49:08.627Z,829.00
2024-05-09T00:50:12.894Z,828.00
2024-05-09T00:51:09.521Z,829.00
2024-05-09T00:52:08.514Z,829.00
2024-05-09T00:53:08.511Z,825.00
2024-05-09T00:54:08.458Z,827.00
2024-05-09T00:55:08.449Z,829.00
2024-05-09T00:56:08.443Z,828.00
2024-05-09T00:57:08.389Z,815.00
2024-05-09T00:58:08.373Z,817.00
2024-05-09T00:59:08.352Z,827.00
2024-05-09T01:00:22.118Z,825.00
2024-05-09T01:01:09.338Z,825.00
2024-05-09T01:02:08.339Z,826.00
2024-05-09T01:03:09.703Z,827.00
2024-05-09T01:04:08.317Z,826.00
2024-05-09T01:05:08.232Z,828.00
2024-05-09T01:06:08.170Z,829.00
2024-05-09T01:07:08.150Z,827.00
2024-05-09T01:08:08.522Z,832.00
2024-05-09T01:09:08.095Z,823.00
2024-05-09T01:10:14.099Z,823.00
2024-05-09T01:11:09.139Z,824.00
2024-05-09T01:12:08.154Z,824.00
2024-05-09T01:13:07.993Z,826.00
2024-05-09T01:14:08.020Z,825.00
2024-05-09T01:15:07.946Z,828.00
2024-05-09T01:16:07.924Z,829.00
2024-05-09T01:17:07.971Z,828.00
2024-05-09T01:18:08.119Z,825.00
2024-05-09T01:19:07.968Z,820.00
2024-05-09T01:20:10.879Z,816.00
2024-05-09T01:21:08.835Z,817.00
2024-05-09T01:22:07.774Z,816.00
2024-05-09T01:23:07.876Z,816.00
2024-05-09T01:24:07.725Z,823.00
2024-05-09T01:25:07.685Z,811.00
2024-05-09T01:26:07.708Z,819.00
2024-05-09T01:27:07.645Z,821.00
2024-05-09T01:28:07.699Z,825.00
2024-05-09T01:29:07.631Z,819.00
2024-05-09T01:30:09.662Z,809.00
2024-05-09T01:31:08.521Z,809.00
2024-05-09T01:32:07.562Z,811.00
2024-05-09T01:33:09.468Z,815.00
2024-05-09T01:34:07.496Z,810.00
2024-05-09T01:35:07.415Z,811.00
2024-05-09T01:36:07.370Z,812.00
2024-05-09T01:37:07.354Z,815.00
2024-05-09T01:38:07.425Z,821.00
2024-05-09T01:39:07.284Z,807.00
2024-05-09T01:40:12.040Z,816.00
2024-05-09T01:41:08.256Z,817.00
2024-05-09T01:42:07.205Z,817.00
2024-05-09T01:43:07.480Z,819.00
2024-05-09T01:44:07.186Z,822.00
2024-05-09T01:45:07.123Z,825.00
2024-05-09T01:46:07.101Z,825.00
2024-05-09T01:47:07.151Z,828.00
2024-05-09T01:48:07.310Z,823.00
2024-05-09T01:49:07.371Z,816.00
2024-05-09T01:50:10.676Z,821.00
2024-05-09T01:51:06.970Z,822.00
2024-05-09T01:52:06.929Z,822.00
2024-05-09T01:53:06.942Z,816.00
2024-05-09T01:54:06.863Z,811.00
2024-05-09T01:55:07.068Z,821.00
2024-05-09T01:56:06.854Z,818.00
2024-05-09T01:57:06.784Z,808.00
2024-05-09T01:58:06.772Z,820.00
2024-05-09T01:59:06.846Z,808.00
2024-05-09T02:00:07.938Z,819.00
2024-05-09T02:01:06.714Z,812.00
2024-05-09T02:02:06.806Z,815.00
2024-05-09T02:03:06.794Z,808.00
2024-05-09T02:04:07.039Z,811.00
2024-05-09T02:05:06.837Z,803.00
2024-05-09T02:06:06.801Z,809.00
2024-05-09T02:07:06.586Z,806.00
2024-05-09T02:08:06.564Z,818.00
2024-05-09T02:09:06.475Z,812.00
2024-05-09T02:10:13.659Z,811.00
2024-05-09T02:11:07.495Z,812.00
2024-05-09T02:12:06.568Z,807.00
2024-05-09T02:13:06.361Z,812.00
2024-05-09T02:14:06.422Z,813.00
2024-05-09T02:15:06.322Z,815.00
2024-05-09T02:16:06.316Z,815.00
2024-05-09T02:17:06.282Z,811.00
2024-05-09T02:18:06.458Z,814.00
2024-05-09T02:19:06.403Z,815.00
2024-05-09T02:20:06.575Z,800.00
2024-05-09T02:21:06.265Z,806.00
2024-05-09T02:22:06.158Z,802.00
2024-05-09T02:23:06.752Z,806.00
2024-05-09T02:24:06.106Z,803.00
2024-05-09T02:25:06.073Z,793.00
2024-05-09T02:26:06.108Z,802.00
2024-05-09T02:27:06.125Z,801.00
2024-05-09T02:28:05.995Z,807.00
2024-05-09T02:29:06.000Z,805.00
2024-05-09T02:30:12.298Z,795.00
2024-05-09T02:31:06.916Z,795.00
2024-05-09T02:32:05.945Z,795.00
2024-05-09T02:33:06.122Z,798.00
2024-05-09T02:34:06.038Z,804.00
2024-05-09T02:35:05.866Z,795.00
2024-05-09T02:36:05.828Z,812.00
2024-05-09T02:37:05.874Z,804.00
2024-05-09T02:38:05.871Z,810.00
2024-05-09T02:39:05.733Z,809.00
2024-05-09T02:40:07.102Z,809.00
2024-05-09T02:41:05.748Z,811.00
2024-05-09T02:42:05.671Z,813.00
2024-05-09T02:43:05.926Z,810.00
2024-05-09T02:44:05.622Z,808.00
2024-05-09T02:45:05.581Z,807.00
2024-05-09T02:46:05.554Z,804.00
2024-05-09T02:47:05.626Z,810.00
2024-05-09T02:48:05.729Z,803.00
2024-05-09T02:49:05.595Z,803.00
2024-05-09T02:50:07.791Z,803.00
2024-05-09T02:51:05.857Z,805.00
2024-05-09T02:52:05.567Z,803.00
2024-05-09T02:53:05.776Z,807.00
2024-05-09T02:54:05.549Z,791.00
2024-05-09T02:55:05.524Z,797.00
2024-05-09T02:56:05.610Z,786.00
2024-05-09T02:57:05.531Z,796.00
2024-05-09T02:58:05.476Z,800.00
2024-05-09T02:59:05.482Z,789.00
2024-05-09T03:00:07.673Z,784.00
2024-05-09T03:01:05.491Z,784.00
2024-05-09T03:02:05.494Z,789.00
2024-05-09T03:03:05.527Z,785.00
2024-05-09T03:04:05.499Z,792.00
2024-05-09T03:05:05.380Z,792.00
2024-05-09T03:06:05.349Z,789.00
2024-05-09T03:07:05.320Z,793.00
2024-05-09T03:08:05.360Z,786.00
2024-05-09T03:09:05.241Z,786.00
2024-05-09T03:10:11.872Z,786.00
2024-05-09T03:11:06.285Z,787.00
2024-05-09T03:12:05.231Z,782.00
2024-05-09T03:13:05.141Z,784.00
2024-05-09T03:14:05.222Z,787.00
2024-05-09T03:15:05.079Z,777.00
2024-05-09T03:16:05.056Z,784.00
2024-05-09T03:17:05.059Z,782.00
2024-05-09T03:18:05.315Z,778.00
2024-05-09T03:19:05.083Z,778.00
2024-05-09T03:20:06.998Z,778.00
2024-05-09T03:21:05.038Z,778.00
2024-05-09T03:22:04.887Z,767.00
2024-05-09T03:23:05.473Z,774.00
2024-05-09T03:24:04.827Z,782.00
2024-05-09T03:25:04.798Z,779.00
2024-05-09T03:26:04.841Z,779.00
2024-05-09T03:27:04.765Z,779.00
2024-05-09T03:28:04.752Z,780.00
2024-05-09T03:29:04.898Z,773.00
2024-05-09T03:30:07.319Z,783.00
2024-05-09T03:31:04.644Z,784.00
2024-05-09T03:32:04.738Z,787.00
2024-05-09T03:33:04.845Z,783.00
2024-05-09T03:34:04.880Z,768.00
2024-05-09T03:35:04.594Z,771.00
2024-05-09T03:36:06.198Z,778.00
2024-05-09T03:37:04.513Z,772.00
2024-05-09T03:38:04.563Z,779.00
2024-05-09T03:39:04.432Z,780.00
2024-05-09T03:40:07.341Z,774.00
2024-05-09T03:41:05.445Z,779.00
2024-05-09T03:42:04.346Z,780.00
2024-05-09T03:43:04.330Z,780.00
2024-05-09T03:44:04.309Z,782.00
2024-05-09T03:45:04.270Z,786.00
2024-05-09T03:46:04.236Z,775.00
2024-05-09T03:47:04.366Z,776.00
2024-05-09T03:48:04.407Z,778.00
2024-05-09T03:49:04.287Z,777.00
2024-05-09T03:50:05.582Z,773.00
2024-05-09T03:51:04.236Z,769.00
2024-05-09T03:52:04.077Z,776.00
2024-05-09T03:53:04.239Z,774.00
2024-05-09T03:54:04.023Z,768.00
2024-05-09T03:55:04.001Z,761.00
2024-05-09T03:56:04.036Z,770.00
2024-05-09T03:57:03.939Z,766.00
2024-05-09T03:58:03.917Z,767.00
2024-05-09T03:59:04.009Z,768.00
2024-05-09T04:00:05.509Z,770.00
2024-05-09T04:01:03.836Z,774.00
2024-05-09T04:02:03.926Z,779.00
2024-05-09T04:03:04.152Z,780.00
2024-05-09T04:04:03.768Z,780.00
2024-05-09T04:05:03.782Z,775.00
2024-05-09T04:06:03.680Z,763.00
2024-05-09T04:07:03.653Z,762.00
2024-05-09T04:08:03.691Z,762.00
2024-05-09T04:09:03.598Z,765.00
2024-05-09T04:10:05.264Z,767.00
2024-05-09T04:11:03.768Z,769.00
2024-05-09T04:12:03.635Z,771.00
2024-05-09T04:13:04.201Z,771.00
2024-05-09T04:14:03.526Z,769.00
2024-05-09T04:15:03.417Z,765.00
2024-05-09T04:16:03.405Z,760.00
2024-05-09T04:17:03.409Z,758.00
2024-05-09T04:18:03.525Z,762.00
2024-05-09T04:19:03.501Z,759.00
2024-05-09T04:20:03.318Z,765.00
2024-05-09T04:21:03.331Z,764.00
2024-05-09T04:22:03.224Z,759.00
2024-05-09T04:23:03.258Z,763.00
2024-05-09T04:24:03.171Z,767.00
2024-05-09T04:25:03.131Z,763.00
2024-05-09T04:26:03.147Z,750.00
2024-05-09T04:27:03.096Z,764.00
2024-05-09T04:28:03.073Z,762.00
2024-05-09T04:29:03.056Z,754.00
2024-05-09T04:30:18.535Z,600.00
2024-05-09T04:31:22.476Z,600.00
2024-05-09T04:32:22.535Z,600.00
2024-05-09T04:33:22.743Z,600.00
2024-05-09T04:34:22.682Z,600.00
2024-05-09T04:35:22.533Z,600.00
2024-05-09T04:36:22.465Z,600.00
2024-05-09T04:37:22.473Z,604.00
2024-05-09T04:38:22.509Z,601.00
2024-05-09T04:39:22.496Z,603.00
2024-05-09T04:40:28.623Z,602.00
2024-05-09T04:41:23.627Z,602.00
2024-05-09T04:42:22.500Z,602.00
2024-05-09T04:43:22.505Z,602.00
2024-05-09T04:44:22.571Z,596.00
2024-05-09T04:45:22.516Z,597.00
2024-05-09T04:46:22.539Z,600.00
2024-05-09T04:47:22.655Z,605.00
2024-05-09T04:48:22.684Z,602.00
2024-05-09T04:49:22.610Z,603.00
2024-05-09T04:50:30.150Z,602.00
2024-05-09T04:51:23.628Z,602.00
2024-05-09T04:52:22.624Z,603.00
2024-05-09T04:53:22.698Z,603.00
2024-05-09T04:54:33.446Z,604.00
2024-05-09T04:55:23.643Z,602.00
2024-05-09T04:56:22.702Z,602.00
2024-05-09T04:57:22.687Z,602.00
2024-05-09T04:58:22.679Z,602.00
2024-05-09T04:59:22.716Z,600.00
2024-05-09T05:00:31.890Z,601.00
2024-05-09T05:01:23.806Z,601.00
2024-05-09T05:02:22.841Z,602.00
2024-05-09T05:03:23.081Z,600.00
2024-05-09T05:04:22.782Z,601.00
2024-05-09T05:05:22.790Z,600.00
2024-05-09T05:06:22.775Z,604.00
2024-05-09T05:07:22.810Z,604.00
2024-05-09T05:08:22.826Z,605.00
2024-05-09T05:09:22.818Z,604.00
2024-05-09T05:10:32.898Z,605.00
2024-05-09T05:11:23.964Z,605.00
2024-05-09T05:12:22.954Z,605.00
2024-05-09T05:13:23.944Z,605.00
2024-05-09T05:14:22.975Z,606.00
2024-05-09T05:15:22.902Z,605.00
2024-05-09T05:16:22.884Z,602.00
2024-05-09T05:17:23.083Z,602.00
2024-05-09T05:18:23.095Z,601.00
2024-05-09T05:19:22.989Z,600.00
2024-05-09T05:20:30.428Z,601.00
2024-05-09T05:21:24.078Z,601.00
2024-05-09T05:22:22.965Z,600.00
2024-05-09T05:23:23.261Z,601.00
2024-05-09T05:24:22.972Z,599.00
2024-05-09T05:25:22.984Z,597.00
2024-05-09T05:26:23.036Z,604.00
2024-05-09T05:27:23.019Z,600.00
2024-05-09T05:28:23.142Z,602.00
2024-05-09T05:29:23.094Z,602.00
2024-05-09T05:30:28.979Z,604.00
2024-05-09T05:31:24.083Z,602.00
2024-05-09T05:32:23.200Z,602.00
2024-05-09T05:33:23.602Z,603.00
2024-05-09T05:34:23.119Z,598.00
2024-05-09T05:35:23.274Z,600.00
2024-05-09T05:36:23.152Z,604.00
2024-05-09T05:37:23.161Z,600.00
2024-05-09T05:38:27.243Z,600.00
2024-05-09T05:39:24.186Z,600.00
2024-05-09T05:40:32.159Z,601.00
2024-05-09T05:41:24.249Z,600.00
2024-05-09T05:42:23.214Z,601.00
2024-05-09T05:43:23.219Z,602.00
2024-05-09T05:44:23.283Z,600.00
2024-05-09T05:45:23.256Z,601.00
2024-05-09T05:46:23.279Z,601.00
2024-05-09T05:47:23.396Z,601.00
2024-05-09T05:48:23.617Z,598.00
2024-05-09T05:49:23.548Z,602.00
2024-05-09T05:50:28.075Z,602.00
2024-05-09T05:51:24.402Z,602.00
2024-05-09T05:52:23.398Z,601.00
2024-05-09T05:53:23.464Z,602.00
2024-05-09T05:54:23.422Z,602.00
2024-05-09T05:55:23.443Z,601.00
2024-05-09T05:56:23.512Z,600.00
2024-05-09T05:57:23.465Z,604.00
2024-05-09T05:58:23.522Z,606.00
2024-05-09T05:59:23.524Z,604.00
2024-05-09T06:00:29.949Z,603.00
2024-05-09T06:01:24.561Z,604.00
2024-05-09T06:02:23.672Z,604.00
2024-05-09T06:03:23.609Z,603.00
2024-05-09T06:04:23.560Z,602.00
2024-05-09T06:06:23.583Z,599.00
2024-05-09T06:07:23.587Z,604.00
2024-05-09T06:08:24.701Z,605.00
2024-05-09T06:09:23.615Z,603.00
2024-05-09T06:10:26.450Z,602.00
2024-05-09T06:11:24.746Z,602.00
2024-05-09T06:12:23.742Z,602.00
2024-05-09T06:13:23.674Z,603.00
2024-05-09T06:14:23.696Z,604.00
2024-05-09T06:15:23.679Z,603.00
2024-05-09T06:16:23.702Z,601.00
2024-05-09T06:17:23.849Z,603.00
2024-05-09T06:18:23.983Z,603.00
2024-05-09T06:19:24.000Z,600.00
2024-05-09T06:20:31.953Z,600.00
2024-05-09T06:21:24.857Z,600.00
2024-05-09T06:22:23.775Z,600.00
2024-05-09T06:23:23.781Z,596.00
2024-05-09T06:24:23.773Z,590.00
2024-05-09T06:25:23.782Z,594.00
2024-05-09T06:26:23.811Z,603.00
2024-05-09T06:27:23.797Z,600.00
2024-05-09T06:28:23.822Z,603.00
2024-05-09T06:29:23.935Z,602.00
2024-05-09T06:30:30.561Z,603.00
2024-05-09T06:31:24.916Z,603.00
2024-05-09T06:32:24.005Z,601.00
2024-05-09T06:33:24.139Z,603.00
2024-05-09T06:34:24.007Z,601.00
2024-05-09T06:35:23.996Z,596.00
2024-05-09T06:36:23.999Z,603.00
2024-05-09T06:37:23.979Z,604.00
2024-05-09T06:38:24.026Z,602.00
2024-05-09T06:39:24.010Z,602.00
2024-05-09T06:40:29.273Z,602.00
2024-05-09T06:41:25.080Z,602.00
2024-05-09T06:42:24.019Z,603.00
2024-05-09T06:43:24.034Z,603.00
2024-05-09T06:44:24.164Z,602.00
2024-05-09T06:45:24.087Z,598.00
2024-05-09T06:46:24.070Z,600.00
2024-05-09T06:47:24.378Z,601.00
2024-05-09T06:48:24.251Z,602.00
2024-05-09T06:49:24.273Z,600.00
2024-05-09T06:50:28.019Z,606.00
2024-05-09T06:51:25.177Z,606.00
2024-05-09T06:52:24.149Z,607.00
2024-05-09T06:53:24.331Z,606.00
2024-05-09T06:54:24.159Z,606.00
2024-05-09T06:55:24.185Z,603.00
2024-05-09T06:56:24.301Z,606.00
2024-05-09T06:57:24.198Z,605.00
2024-05-09T06:58:24.206Z,603.00
2024-05-09T06:59:24.282Z,605.00
2024-05-09T07:00:30.848Z,604.00
2024-05-09T07:01:25.320Z,604.00
2024-05-09T07:02:24.393Z,604.00
2024-05-09T07:03:24.425Z,602.00
2024-05-09T07:04:24.398Z,601.00
2024-05-09T07:05:24.472Z,604.00
2024-05-09T07:06:24.311Z,607.00
2024-05-09T07:07:24.291Z,603.00
2024-05-09T07:08:24.376Z,602.00
2024-05-09T07:09:24.319Z,602.00
2024-05-09T07:10:29.167Z,602.00
2024-05-09T07:11:25.444Z,602.00
2024-05-09T07:12:24.631Z,602.00
2024-05-09T07:13:24.348Z,604.00
2024-05-09T07:14:24.435Z,602.00
2024-05-09T07:15:24.411Z,601.00
2024-05-09T07:16:24.483Z,606.00
2024-05-09T07:17:24.550Z,603.00
2024-05-09T07:18:24.545Z,602.00
2024-05-09T07:19:24.732Z,602.00
2024-05-09T07:20:32.374Z,607.00
2024-05-09T07:21:25.468Z,604.00
2024-05-09T07:22:24.419Z,604.00
2024-05-09T07:23:24.584Z,604.00
2024-05-09T07:24:24.454Z,601.00
2024-05-09T07:25:24.437Z,603.00
2024-05-09T07:26:24.478Z,608.00
2024-05-09T07:27:24.460Z,612.00
2024-05-09T07:28:24.474Z,610.00
2024-05-09T07:29:24.493Z,612.00
2024-05-09T07:30:32.502Z,608.00
2024-05-09T07:31:25.446Z,609.00
2024-05-09T07:32:24.642Z,607.00
2024-05-09T07:33:24.963Z,606.00
2024-05-09T07:34:24.487Z,607.00
2024-05-09T07:35:24.525Z,601.00
2024-05-09T07:36:24.500Z,604.00
2024-05-09T07:37:24.459Z,605.00
2024-05-09T07:38:24.579Z,603.00
2024-05-09T07:39:24.480Z,606.00
2024-05-09T07:40:32.487Z,605.00
2024-05-09T07:41:25.496Z,605.00
2024-05-09T07:42:24.533Z,606.00
2024-05-09T07:43:24.497Z,607.00
2024-05-09T07:44:24.599Z,606.00
2024-05-09T07:45:43.013Z,609.00
2024-05-09T07:47:20.382Z,605.00
2024-05-09T07:48:56.933Z,605.00
2024-05-09T07:50:00.927Z,606.00
2024-05-09T07:54:24.872Z,606.00
2024-05-09T07:55:24.768Z,607.00
2024-05-09T07:56:25.720Z,606.00
2024-05-09T07:57:24.663Z,611.00
2024-05-09T07:58:24.581Z,609.00
2024-05-09T07:59:24.603Z,610.00
2024-05-09T08:00:31.004Z,604.00
2024-05-09T08:01:26.056Z,605.00
2024-05-09T08:02:24.849Z,605.00
2024-05-09T08:03:24.752Z,606.00
2024-05-09T08:04:26.559Z,607.00
2024-05-09T08:05:24.696Z,606.00
2024-05-09T08:06:24.687Z,603.00
2024-05-09T08:07:24.678Z,608.00
2024-05-09T08:08:24.634Z,604.00
2024-05-09T08:09:24.632Z,608.00
2024-05-09T08:10:28.431Z,606.00
2024-05-09T08:11:24.746Z,606.00
2024-05-09T08:12:24.648Z,606.00
2024-05-09T08:13:24.705Z,607.00
2024-05-09T08:14:24.733Z,601.00
2024-05-09T08:15:24.661Z,608.00
2024-05-09T08:16:24.773Z,601.00
2024-05-09T08:17:24.838Z,607.00
2024-05-09T08:18:24.844Z,608.00
2024-05-09T08:19:24.727Z,609.00
2024-05-09T08:20:31.019Z,608.00
2024-05-09T08:21:25.666Z,608.00
2024-05-09T08:22:24.668Z,609.00
2024-05-09T08:23:24.682Z,604.00
2024-05-09T08:24:24.710Z,606.00
2024-05-09T08:25:24.750Z,610.00
2024-05-09T08:26:24.707Z,600.00
2024-05-09T08:27:24.679Z,611.00
2024-05-09T08:28:24.782Z,611.00
2024-05-09T08:29:24.675Z,606.00
2024-05-09T08:30:32.535Z,607.00
2024-05-09T08:31:25.839Z,607.00
2024-05-09T08:32:24.807Z,601.00
2024-05-09T08:33:24.791Z,599.00
2024-05-09T08:34:24.792Z,601.00
2024-05-09T08:35:24.705Z,602.00
2024-05-09T08:36:24.679Z,617.00
2024-05-09T08:37:27.859Z,606.00
2024-05-09T08:38:25.690Z,606.00
2024-05-09T08:39:24.684Z,600.00
2024-05-09T08:40:31.074Z,600.00
2024-05-09T08:41:25.686Z,600.00
2024-05-09T08:42:24.691Z,607.00
2024-05-09T08:43:24.754Z,606.00
2024-05-09T08:44:24.725Z,604.00
2024-05-09T08:45:24.701Z,595.00
2024-05-09T08:46:24.829Z,601.00
2024-05-09T08:47:24.772Z,603.00
2024-05-09T08:48:24.921Z,607.00
2024-05-09T08:49:24.759Z,606.00
2024-05-09T08:50:32.283Z,606.00
2024-05-09T08:51:25.669Z,606.00
2024-05-09T08:52:24.671Z,604.00
2024-05-09T08:53:24.676Z,602.00
2024-05-09T08:54:24.676Z,593.00
2024-05-09T08:55:24.703Z,598.00
2024-05-09T08:56:24.647Z,608.00
2024-05-09T08:57:24.895Z,604.00
2024-05-09T08:58:24.794Z,610.00
2024-05-09T08:59:24.650Z,611.00
2024-05-09T09:00:33.784Z,608.00
2024-05-09T09:01:25.795Z,608.00
2024-05-09T09:02:24.856Z,609.00
2024-05-09T09:03:24.871Z,599.00
2024-05-09T09:04:24.759Z,608.00
2024-05-09T09:05:24.792Z,608.00
2024-05-09T09:06:24.626Z,600.00
2024-05-09T09:07:24.701Z,601.00
2024-05-09T09:08:24.722Z,607.00
2024-05-09T09:09:24.619Z,604.00
2024-05-09T09:10:30.053Z,604.00
2024-05-09T09:11:25.659Z,605.00
2024-05-09T09:12:24.606Z,605.00
2024-05-09T09:13:24.664Z,608.00
2024-05-09T09:14:24.609Z,605.00
2024-05-09T09:15:24.639Z,607.00
2024-05-09T09:16:24.823Z,607.00
2024-05-09T09:17:24.642Z,608.00
2024-05-09T09:18:24.621Z,600.00
2024-05-09T09:19:24.778Z,611.00
2024-05-09T09:20:29.539Z,617.00
2024-05-09T09:21:25.575Z,613.00
2024-05-09T09:22:24.608Z,613.00
2024-05-09T09:23:24.596Z,603.00
2024-05-09T09:24:24.587Z,615.00
2024-05-09T09:25:24.552Z,615.00
2024-05-09T09:26:24.566Z,606.00
2024-05-09T09:27:24.551Z,606.00
2024-05-09T09:28:24.558Z,607.00
2024-05-09T09:29:24.533Z,619.00
2024-05-09T09:30:34.630Z,607.00
2024-05-09T09:31:25.620Z,607.00
2024-05-09T09:32:24.566Z,608.00
2024-05-09T09:33:24.648Z,607.00
2024-05-09T09:34:24.733Z,607.00
2024-05-09T09:35:24.513Z,614.00
2024-05-09T09:36:24.521Z,612.00
2024-05-09T09:37:24.585Z,614.00
2024-05-09T09:38:24.515Z,614.00
2024-05-09T09:39:24.519Z,614.00
2024-05-09T09:40:31.064Z,614.00
2024-05-09T09:41:25.506Z,610.00
2024-05-09T09:42:24.481Z,615.00
2024-05-09T09:43:24.511Z,611.00
2024-05-09T09:44:24.491Z,614.00
2024-05-09T09:45:24.496Z,615.00
2024-05-09T09:46:24.620Z,610.00
2024-05-09T09:47:24.550Z,617.00
2024-05-09T09:48:24.522Z,613.00
2024-05-09T09:49:24.522Z,619.00
2024-05-09T09:50:31.764Z,614.00
2024-05-09T09:51:25.468Z,614.00
2024-05-09T09:52:24.570Z,614.00
2024-05-09T09:53:24.469Z,615.00
2024-05-09T09:54:24.444Z,615.00
2024-05-09T09:55:24.457Z,620.00
2024-05-09T09:56:24.427Z,612.00
2024-05-09T09:57:24.409Z,615.00
2024-05-09T09:58:24.532Z,614.00
2024-05-09T09:59:24.381Z,609.00
2024-05-09T10:00:30.503Z,613.00
2024-05-09T10:01:25.440Z,613.00
2024-05-09T10:02:24.554Z,613.00
2024-05-09T10:03:24.465Z,607.00
2024-05-09T10:04:24.418Z,610.00
2024-05-09T10:05:24.627Z,602.00
2024-05-09T10:06:24.350Z,610.00
2024-05-09T10:07:24.416Z,604.00
2024-05-09T10:08:24.366Z,600.00
2024-05-09T10:09:24.338Z,610.00
2024-05-09T10:11:24.350Z,604.00
2024-05-09T10:12:24.436Z,607.00
2024-05-09T10:13:24.464Z,607.00
2024-05-09T10:14:24.311Z,614.00
2024-05-09T10:15:24.327Z,614.00
2024-05-09T10:16:24.547Z,612.00
2024-05-09T10:17:24.359Z,610.00
2024-05-09T10:18:26.114Z,610.00
2024-05-09T10:19:24.440Z,609.00
2024-05-09T10:20:28.087Z,611.00
2024-05-09T10:21:25.298Z,610.00
2024-05-09T10:22:24.391Z,609.00
2024-05-09T10:23:24.329Z,608.00
2024-05-09T10:24:24.276Z,608.00
2024-05-09T10:25:24.565Z,607.00
2024-05-09T10:26:24.253Z,610.00
2024-05-09T10:27:24.256Z,608.00
2024-05-09T10:28:24.273Z,609.00
2024-05-09T10:29:24.230Z,606.00
2024-05-09T10:30:33.332Z,610.00
2024-05-09T10:31:25.241Z,610.00
2024-05-09T10:32:24.356Z,610.00
2024-05-09T10:33:24.269Z,613.00
2024-05-09T10:34:24.562Z,612.00
2024-05-09T10:35:24.229Z,614.00
2024-05-09T10:36:24.203Z,611.00
2024-05-09T10:37:24.322Z,610.00
2024-05-09T10:38:24.229Z,612.00
2024-05-09T10:39:24.199Z,608.00
2024-05-09T10:40:30.975Z,607.00
2024-05-09T10:41:25.207Z,607.00
2024-05-09T10:42:24.204Z,607.00
2024-05-09T10:43:24.242Z,608.00
2024-05-09T10:44:24.201Z,609.00
2024-05-09T10:45:24.168Z,610.00
2024-05-09T10:46:24.238Z,611.00
2024-05-09T10:48:24.342Z,612.00
2024-05-09T10:49:24.296Z,616.00
2024-05-09T10:50:28.747Z,613.00
2024-05-09T10:51:25.110Z,613.00
2024-05-09T10:52:24.187Z,613.00
2024-05-09T10:53:24.116Z,613.00
2024-05-09T10:54:24.127Z,611.00
2024-05-09T10:55:24.171Z,612.00
2024-05-09T10:56:24.099Z,610.00
2024-05-09T10:57:24.098Z,608.00
2024-05-09T10:58:24.144Z,609.00
2024-05-09T10:59:24.076Z,605.00
2024-05-09T11:00:33.059Z,605.00
2024-05-09T11:01:25.174Z,605.00
2024-05-09T11:02:24.214Z,605.00
2024-05-09T11:03:24.117Z,608.00
2024-05-09T11:04:24.127Z,603.00
2024-05-09T11:05:24.157Z,608.00
2024-05-09T11:06:24.042Z,606.00
2024-05-09T11:07:24.117Z,609.00
2024-05-09T11:08:24.028Z,606.00
2024-05-09T11:09:24.017Z,608.00
2024-05-09T11:10:27.617Z,608.00
2024-05-09T11:11:25.118Z,607.00
2024-05-09T11:12:24.923Z,608.00
2024-05-09T11:13:24.032Z,608.00
2024-05-09T11:14:23.994Z,607.00
2024-05-09T11:15:23.993Z,608.00
2024-05-09T11:16:24.063Z,608.00
2024-05-09T11:17:24.100Z,609.00
2024-05-09T11:18:25.104Z,609.00
2024-05-09T11:19:24.087Z,608.00
2024-05-09T11:20:29.509Z,605.00
2024-05-09T11:21:25.041Z,605.00
2024-05-09T11:22:24.028Z,605.00
2024-05-09T11:23:23.971Z,607.00
2024-05-09T11:24:23.923Z,607.00
2024-05-09T11:25:23.969Z,610.00
2024-05-09T11:26:23.902Z,608.00
2024-05-09T11:27:23.951Z,610.00
2024-05-09T11:28:23.907Z,605.00
2024-05-09T11:29:23.887Z,606.00
2024-05-09T11:30:29.964Z,610.00
2024-05-09T11:31:25.053Z,610.00
2024-05-09T11:32:23.940Z,611.00
2024-05-09T11:33:23.963Z,612.00
2024-05-09T11:34:23.934Z,610.00
2024-05-09T11:35:23.877Z,607.00
2024-05-09T11:36:23.885Z,615.00
2024-05-09T11:37:23.938Z,610.00
2024-05-09T11:38:23.877Z,614.00
2024-05-09T11:39:23.886Z,614.00
2024-05-09T11:40:25.825Z,614.00
2024-05-09T11:41:24.899Z,614.00
2024-05-09T11:42:23.858Z,616.00
2024-05-09T11:43:23.993Z,617.00
2024-05-09T11:44:23.855Z,618.00
2024-05-09T11:45:23.854Z,621.00
2024-05-09T11:46:23.990Z,620.00
2024-05-09T11:47:23.975Z,620.00
2024-05-09T11:48:24.019Z,626.00
2024-05-09T11:49:25.444Z,617.00
2024-05-09T11:50:29.918Z,615.00
2024-05-09T11:51:24.838Z,615.00
2024-05-09T11:52:23.899Z,617.00
2024-05-09T11:53:23.843Z,618.00
2024-05-09T11:54:23.812Z,623.00
2024-05-09T11:55:26.820Z,625.00
2024-05-09T11:56:23.803Z,616.00
2024-05-09T11:57:23.814Z,616.00
2024-05-09T11:58:23.963Z,617.00
2024-05-09T11:59:23.811Z,620.00
2024-05-09T12:00:33.192Z,625.00
2024-05-09T12:01:27.482Z,615.00
2024-05-09T12:02:24.001Z,615.00
2024-05-09T12:03:24.294Z,614.00
2024-05-09T12:04:23.989Z,612.00
2024-05-09T12:05:23.882Z,615.00
2024-05-09T12:06:23.728Z,614.00
2024-05-09T12:07:23.944Z,615.00
2024-05-09T12:08:23.721Z,610.00
2024-05-09T12:09:23.711Z,600.00
2024-05-09T12:10:32.089Z,600.00
2024-05-09T12:11:24.737Z,600.00
2024-05-09T12:12:23.715Z,600.00
2024-05-09T12:13:23.768Z,602.00
2024-05-09T12:14:23.642Z,600.00
2024-05-09T12:15:23.641Z,594.00
2024-05-09T12:16:23.834Z,605.00
2024-05-09T12:17:23.695Z,607.00
2024-05-09T12:18:23.644Z,608.00
2024-05-09T12:19:23.653Z,611.00
2024-05-09T12:20:28.899Z,607.00
2024-05-09T12:21:24.654Z,607.00
2024-05-09T12:22:23.620Z,606.00
2024-05-09T12:23:23.585Z,599.00
2024-05-09T12:24:23.554Z,599.00
2024-05-09T12:25:23.638Z,599.00
2024-05-09T12:26:23.543Z,602.00
2024-05-09T12:27:23.523Z,601.00
2024-05-09T12:28:23.615Z,602.00
2024-05-09T12:29:23.494Z,604.00
2024-05-09T12:30:32.803Z,603.00
2024-05-09T12:31:24.549Z,603.00
2024-05-09T12:32:23.550Z,603.00
2024-05-09T12:33:23.598Z,602.00
2024-05-09T12:34:23.526Z,596.00
2024-05-09T12:35:23.463Z,596.00
2024-05-09T12:36:23.442Z,601.00